sensor_id;sensor_type;location;lat;lon;timestamp;P1;durP1;ratioP1;P2;durP2;ratioP2
11854;SDS011;5987;53.140;8.904;2022-07-05T00:00:12;2.13;;;1.60;;
11854;SDS011;5987;53.140;8.904;2022-07-05T00:03:19;2.77;;;1.50;;
11854;SDS011;5987;53.140;8.904;2022-07-05T00:06:22;3.40;;;1.20;;
11854;SDS011;5987;53.140;8.904;2022-07-05T00:09:26;3.67;;;1.40;;
11854;SDS011;5987;53.140;8.904;2022-07-05T00:12:31;3.20;;;1.50;;
11854;SDS011;5987;53.140;8.904;2022-07-05T00:15:35;1.43;;;1.20;;
11854;SDS011;5987;53.140;8.904;2022-07-05T00:18:40;2.43;;;1.30;;
11854;SDS011;5987;53.140;8.904;2022-07-05T00:21:44;6.00;;;1.47;;
11854;SDS011;5987;53.140;8.904;2022-07-05T00:24:48;4.60;;;1.50;;
11854;SDS011;5987;53.140;8.904;2022-07-05T00:27:52;2.17;;;1.60;;
11854;SDS011;5987;53.140;8.904;2022-07-05T00:30:56;1.70;;;1.57;;
11854;SDS011;5987;53.140;8.904;2022-07-05T00:34:01;4.37;;;1.53;;
11854;SDS011;5987;53.140;8.904;2022-07-05T00:37:05;4.73;;;1.73;;
11854;SDS011;5987;53.140;8.904;2022-07-05T00:40:09;3.37;;;1.93;;
11854;SDS011;5987;53.140;8.904;2022-07-05T00:43:13;2.93;;;1.30;;
11854;SDS011;5987;53.140;8.904;2022-07-05T00:46:17;3.33;;;1.67;;
11854;SDS011;5987;53.140;8.904;2022-07-05T00:49:22;1.50;;;1.40;;
11854;SDS011;5987;53.140;8.904;2022-07-05T00:52:26;2.73;;;1.40;;
11854;SDS011;5987;53.140;8.904;2022-07-05T00:55:30;2.30;;;1.80;;
11854;SDS011;5987;53.140;8.904;2022-07-05T00:58:34;2.37;;;1.90;;
11854;SDS011;5987;53.140;8.904;2022-07-05T01:01:38;2.63;;;1.50;;
11854;SDS011;5987;53.140;8.904;2022-07-05T01:04:43;2.47;;;1.77;;
11854;SDS011;5987;53.140;8.904;2022-07-05T01:07:47;3.00;;;1.90;;
11854;SDS011;5987;53.140;8.904;2022-07-05T01:10:51;4.00;;;1.97;;
11854;SDS011;5987;53.140;8.904;2022-07-05T01:13:58;3.30;;;1.67;;
11854;SDS011;5987;53.140;8.904;2022-07-05T01:17:03;4.23;;;1.77;;
11854;SDS011;5987;53.140;8.904;2022-07-05T01:20:09;2.53;;;1.70;;
11854;SDS011;5987;53.140;8.904;2022-07-05T01:23:14;5.00;;;1.80;;
11854;SDS011;5987;53.140;8.904;2022-07-05T01:26:19;5.33;;;2.33;;
11854;SDS011;5987;53.140;8.904;2022-07-05T01:29:23;3.73;;;2.10;;
11854;SDS011;5987;53.140;8.904;2022-07-05T01:32:27;4.63;;;2.80;;
11854;SDS011;5987;53.140;8.904;2022-07-05T01:35:32;4.00;;;2.43;;
11854;SDS011;5987;53.140;8.904;2022-07-05T01:38:38;5.63;;;2.40;;
11854;SDS011;5987;53.140;8.904;2022-07-05T01:41:42;4.10;;;2.10;;
11854;SDS011;5987;53.140;8.904;2022-07-05T01:44:46;4.53;;;2.37;;
11854;SDS011;5987;53.140;8.904;2022-07-05T01:47:49;3.33;;;2.13;;
11854;SDS011;5987;53.140;8.904;2022-07-05T01:50:53;5.43;;;2.70;;
11854;SDS011;5987;53.140;8.904;2022-07-05T01:54:07;4.60;;;2.53;;
11854;SDS011;5987;53.140;8.904;2022-07-05T01:57:11;3.93;;;2.67;;
11854;SDS011;5987;53.140;8.904;2022-07-05T02:00:15;5.50;;;3.03;;
11854;SDS011;5987;53.140;8.904;2022-07-05T02:03:19;2.90;;;2.60;;
11854;SDS011;5987;53.140;8.904;2022-07-05T02:06:44;5.07;;;3.03;;
11854;SDS011;5987;53.140;8.904;2022-07-05T02:09:49;6.87;;;3.00;;
11854;SDS011;5987;53.140;8.904;2022-07-05T02:12:53;3.50;;;3.17;;
11854;SDS011;5987;53.140;8.904;2022-07-05T02:15:56;6.23;;;3.03;;
11854;SDS011;5987;53.140;8.904;2022-07-05T02:19:00;6.57;;;3.23;;
11854;SDS011;5987;53.140;8.904;2022-07-05T02:22:04;4.27;;;3.10;;
11854;SDS011;5987;53.140;8.904;2022-07-05T02:25:10;6.70;;;3.27;;
11854;SDS011;5987;53.140;8.904;2022-07-05T02:28:14;4.13;;;3.17;;
11854;SDS011;5987;53.140;8.904;2022-07-05T02:31:18;4.70;;;3.03;;
11854;SDS011;5987;53.140;8.904;2022-07-05T02:34:22;6.27;;;3.23;;
11854;SDS011;5987;53.140;8.904;2022-07-05T02:37:26;6.17;;;3.43;;
11854;SDS011;5987;53.140;8.904;2022-07-05T02:40:32;5.50;;;3.23;;
11854;SDS011;5987;53.140;8.904;2022-07-05T02:43:36;6.33;;;3.47;;
11854;SDS011;5987;53.140;8.904;2022-07-05T02:46:41;4.97;;;3.40;;
11854;SDS011;5987;53.140;8.904;2022-07-05T02:49:45;5.07;;;3.30;;
11854;SDS011;5987;53.140;8.904;2022-07-05T02:52:49;3.30;;;2.97;;
11854;SDS011;5987;53.140;8.904;2022-07-05T02:55:54;4.47;;;3.10;;
11854;SDS011;5987;53.140;8.904;2022-07-05T02:58:58;3.73;;;2.90;;
11854;SDS011;5987;53.140;8.904;2022-07-05T03:02:02;6.67;;;3.40;;
11854;SDS011;5987;53.140;8.904;2022-07-05T03:05:06;5.07;;;3.37;;
11854;SDS011;5987;53.140;8.904;2022-07-05T03:08:10;4.27;;;3.53;;
11854;SDS011;5987;53.140;8.904;2022-07-05T03:11:15;3.93;;;3.40;;
11854;SDS011;5987;53.140;8.904;2022-07-05T03:14:20;3.83;;;3.13;;
11854;SDS011;5987;53.140;8.904;2022-07-05T03:17:23;6.30;;;3.77;;
11854;SDS011;5987;53.140;8.904;2022-07-05T03:20:28;5.40;;;4.10;;
11854;SDS011;5987;53.140;8.904;2022-07-05T03:23:32;5.80;;;4.20;;
11854;SDS011;5987;53.140;8.904;2022-07-05T03:26:37;5.43;;;4.40;;
11854;SDS011;5987;53.140;8.904;2022-07-05T03:29:40;4.50;;;4.10;;
11854;SDS011;5987;53.140;8.904;2022-07-05T03:32:45;5.47;;;4.53;;
11854;SDS011;5987;53.140;8.904;2022-07-05T03:35:48;4.40;;;4.00;;
11854;SDS011;5987;53.140;8.904;2022-07-05T03:38:52;7.43;;;4.33;;
11854;SDS011;5987;53.140;8.904;2022-07-05T03:41:57;4.60;;;4.20;;
11854;SDS011;5987;53.140;8.904;2022-07-05T03:45:01;5.07;;;4.30;;
11854;SDS011;5987;53.140;8.904;2022-07-05T03:48:06;9.10;;;4.93;;
11854;SDS011;5987;53.140;8.904;2022-07-05T03:51:29;7.03;;;4.97;;
11854;SDS011;5987;53.140;8.904;2022-07-05T03:54:33;4.20;;;3.80;;
11854;SDS011;5987;53.140;8.904;2022-07-05T03:57:38;4.03;;;3.63;;
11854;SDS011;5987;53.140;8.904;2022-07-05T04:00:42;4.30;;;4.00;;
11854;SDS011;5987;53.140;8.904;2022-07-05T04:03:46;6.10;;;3.83;;
11854;SDS011;5987;53.140;8.904;2022-07-05T04:06:50;5.37;;;3.93;;
11854;SDS011;5987;53.140;8.904;2022-07-05T04:09:53;5.63;;;4.17;;
11854;SDS011;5987;53.140;8.904;2022-07-05T04:12:58;5.00;;;4.43;;
11854;SDS011;5987;53.140;8.904;2022-07-05T04:16:02;7.37;;;4.63;;
11854;SDS011;5987;53.140;8.904;2022-07-05T04:19:07;5.43;;;4.60;;
11854;SDS011;5987;53.140;8.904;2022-07-05T04:22:11;6.83;;;4.63;;
11854;SDS011;5987;53.140;8.904;2022-07-05T04:25:15;6.03;;;4.30;;
11854;SDS011;5987;53.140;8.904;2022-07-05T04:28:20;7.87;;;4.50;;
11854;SDS011;5987;53.140;8.904;2022-07-05T04:31:24;7.77;;;4.87;;
11854;SDS011;5987;53.140;8.904;2022-07-05T04:34:28;4.90;;;4.40;;
11854;SDS011;5987;53.140;8.904;2022-07-05T04:37:32;4.90;;;3.97;;
11854;SDS011;5987;53.140;8.904;2022-07-05T04:40:35;5.80;;;4.07;;
11854;SDS011;5987;53.140;8.904;2022-07-05T04:43:41;9.00;;;4.23;;
11854;SDS011;5987;53.140;8.904;2022-07-05T04:46:45;4.40;;;4.00;;
11854;SDS011;5987;53.140;8.904;2022-07-05T04:49:49;6.20;;;4.10;;
11854;SDS011;5987;53.140;8.904;2022-07-05T04:52:52;5.00;;;3.30;;
11854;SDS011;5987;53.140;8.904;2022-07-05T04:55:56;5.23;;;3.53;;
11854;SDS011;5987;53.140;8.904;2022-07-05T04:59:01;6.13;;;3.40;;
11854;SDS011;5987;53.140;8.904;2022-07-05T05:02:05;5.87;;;3.40;;
11854;SDS011;5987;53.140;8.904;2022-07-05T05:05:09;5.47;;;4.00;;
11854;SDS011;5987;53.140;8.904;2022-07-05T05:08:13;5.50;;;3.67;;
11854;SDS011;5987;53.140;8.904;2022-07-05T05:11:16;7.03;;;3.37;;
11854;SDS011;5987;53.140;8.904;2022-07-05T05:14:22;4.67;;;3.30;;
11854;SDS011;5987;53.140;8.904;2022-07-05T05:17:25;4.50;;;3.20;;
11854;SDS011;5987;53.140;8.904;2022-07-05T05:20:38;5.00;;;2.67;;
11854;SDS011;5987;53.140;8.904;2022-07-05T05:23:42;4.73;;;2.60;;
11854;SDS011;5987;53.140;8.904;2022-07-05T05:26:46;7.93;;;2.73;;
11854;SDS011;5987;53.140;8.904;2022-07-05T05:29:52;3.53;;;2.17;;
11854;SDS011;5987;53.140;8.904;2022-07-05T05:32:55;3.90;;;2.43;;
11854;SDS011;5987;53.140;8.904;2022-07-05T05:36:00;5.63;;;2.50;;
11854;SDS011;5987;53.140;8.904;2022-07-05T05:39:04;3.63;;;2.27;;
11854;SDS011;5987;53.140;8.904;2022-07-05T05:42:08;8.43;;;2.73;;
11854;SDS011;5987;53.140;8.904;2022-07-05T05:45:13;7.60;;;2.70;;
11854;SDS011;5987;53.140;8.904;2022-07-05T05:48:17;4.00;;;2.30;;
11854;SDS011;5987;53.140;8.904;2022-07-05T05:51:21;3.60;;;2.27;;
11854;SDS011;5987;53.140;8.904;2022-07-05T05:54:26;6.27;;;2.60;;
11854;SDS011;5987;53.140;8.904;2022-07-05T05:57:29;5.57;;;2.67;;
11854;SDS011;5987;53.140;8.904;2022-07-05T06:00:34;3.80;;;2.33;;
11854;SDS011;5987;53.140;8.904;2022-07-05T06:03:38;5.43;;;2.23;;
11854;SDS011;5987;53.140;8.904;2022-07-05T06:06:42;6.87;;;2.23;;
11854;SDS011;5987;53.140;8.904;2022-07-05T06:09:46;3.03;;;1.80;;
11854;SDS011;5987;53.140;8.904;2022-07-05T06:12:50;2.07;;;1.57;;
11854;SDS011;5987;53.140;8.904;2022-07-05T06:15:57;6.63;;;2.60;;
11854;SDS011;5987;53.140;8.904;2022-07-05T06:19:01;3.83;;;2.07;;
11854;SDS011;5987;53.140;8.904;2022-07-05T06:22:05;7.03;;;2.00;;
11854;SDS011;5987;53.140;8.904;2022-07-05T06:25:09;4.57;;;1.93;;
11854;SDS011;5987;53.140;8.904;2022-07-05T06:28:23;4.53;;;1.50;;
11854;SDS011;5987;53.140;8.904;2022-07-05T06:31:29;7.00;;;2.00;;
11854;SDS011;5987;53.140;8.904;2022-07-05T06:34:33;4.03;;;1.80;;
11854;SDS011;5987;53.140;8.904;2022-07-05T06:37:41;2.97;;;1.80;;
11854;SDS011;5987;53.140;8.904;2022-07-05T06:40:47;4.43;;;1.73;;
11854;SDS011;5987;53.140;8.904;2022-07-05T06:43:52;4.47;;;2.20;;
11854;SDS011;5987;53.140;8.904;2022-07-05T06:47:16;3.70;;;2.37;;
11854;SDS011;5987;53.140;8.904;2022-07-05T06:50:21;3.43;;;1.93;;
11854;SDS011;5987;53.140;8.904;2022-07-05T06:53:25;4.67;;;2.33;;
11854;SDS011;5987;53.140;8.904;2022-07-05T06:56:28;4.43;;;1.43;;
11854;SDS011;5987;53.140;8.904;2022-07-05T06:59:49;2.63;;;1.60;;
11854;SDS011;5987;53.140;8.904;2022-07-05T07:03:00;3.53;;;1.43;;
11854;SDS011;5987;53.140;8.904;2022-07-05T07:06:23;2.83;;;1.23;;
11854;SDS011;5987;53.140;8.904;2022-07-05T07:09:28;4.40;;;1.30;;
11854;SDS011;5987;53.140;8.904;2022-07-05T07:12:30;2.23;;;1.20;;
11854;SDS011;5987;53.140;8.904;2022-07-05T07:15:35;2.50;;;1.30;;
11854;SDS011;5987;53.140;8.904;2022-07-05T07:18:47;2.97;;;1.33;;
11854;SDS011;5987;53.140;8.904;2022-07-05T07:22:11;4.60;;;1.20;;
11854;SDS011;5987;53.140;8.904;2022-07-05T07:25:15;2.97;;;0.90;;
11854;SDS011;5987;53.140;8.904;2022-07-05T07:28:21;3.13;;;1.13;;
11854;SDS011;5987;53.140;8.904;2022-07-05T07:31:25;3.47;;;1.10;;
11854;SDS011;5987;53.140;8.904;2022-07-05T07:34:31;3.70;;;1.10;;
11854;SDS011;5987;53.140;8.904;2022-07-05T07:37:35;2.63;;;1.20;;
11854;SDS011;5987;53.140;8.904;2022-07-05T07:40:40;6.67;;;1.40;;
11854;SDS011;5987;53.140;8.904;2022-07-05T07:43:43;2.80;;;1.40;;
11854;SDS011;5987;53.140;8.904;2022-07-05T07:46:47;3.60;;;2.07;;
11854;SDS011;5987;53.140;8.904;2022-07-05T07:49:53;3.47;;;1.77;;
11854;SDS011;5987;53.140;8.904;2022-07-05T07:52:57;4.20;;;1.50;;
11854;SDS011;5987;53.140;8.904;2022-07-05T07:56:01;2.33;;;1.00;;
11854;SDS011;5987;53.140;8.904;2022-07-05T07:59:05;2.20;;;0.90;;
11854;SDS011;5987;53.140;8.904;2022-07-05T08:02:09;2.47;;;0.80;;
11854;SDS011;5987;53.140;8.904;2022-07-05T08:05:14;3.60;;;0.77;;
11854;SDS011;5987;53.140;8.904;2022-07-05T08:08:18;0.87;;;0.57;;
11854;SDS011;5987;53.140;8.904;2022-07-05T08:11:22;0.90;;;0.70;;
11854;SDS011;5987;53.140;8.904;2022-07-05T08:14:26;2.23;;;0.63;;
11854;SDS011;5987;53.140;8.904;2022-07-05T08:17:30;1.47;;;0.70;;
11854;SDS011;5987;53.140;8.904;2022-07-05T08:20:35;2.30;;;1.07;;
11854;SDS011;5987;53.140;8.904;2022-07-05T08:23:56;1.73;;;0.60;;
11854;SDS011;5987;53.140;8.904;2022-07-05T08:27:00;2.60;;;0.50;;
11854;SDS011;5987;53.140;8.904;2022-07-05T08:30:04;4.40;;;0.83;;
11854;SDS011;5987;53.140;8.904;2022-07-05T08:33:10;0.73;;;0.47;;
11854;SDS011;5987;53.140;8.904;2022-07-05T08:36:15;1.40;;;0.57;;
11854;SDS011;5987;53.140;8.904;2022-07-05T08:39:19;1.40;;;0.33;;
11854;SDS011;5987;53.140;8.904;2022-07-05T08:42:23;0.63;;;0.30;;
11854;SDS011;5987;53.140;8.904;2022-07-05T08:45:28;0.63;;;0.40;;
11854;SDS011;5987;53.140;8.904;2022-07-05T08:48:34;1.30;;;0.40;;
11854;SDS011;5987;53.140;8.904;2022-07-05T08:51:45;0.90;;;0.40;;
11854;SDS011;5987;53.140;8.904;2022-07-05T08:54:49;2.17;;;0.70;;
11854;SDS011;5987;53.140;8.904;2022-07-05T08:57:55;2.60;;;0.53;;
11854;SDS011;5987;53.140;8.904;2022-07-05T09:00:58;0.87;;;0.40;;
11854;SDS011;5987;53.140;8.904;2022-07-05T09:04:04;0.97;;;0.50;;
11854;SDS011;5987;53.140;8.904;2022-07-05T09:07:13;1.13;;;0.70;;
11854;SDS011;5987;53.140;8.904;2022-07-05T09:10:20;1.43;;;0.40;;
11854;SDS011;5987;53.140;8.904;2022-07-05T09:13:32;3.00;;;0.40;;
11854;SDS011;5987;53.140;8.904;2022-07-05T09:16:37;0.70;;;0.40;;
11854;SDS011;5987;53.140;8.904;2022-07-05T09:19:42;0.60;;;0.40;;
11854;SDS011;5987;53.140;8.904;2022-07-05T09:22:55;1.50;;;0.50;;
11854;SDS011;5987;53.140;8.904;2022-07-05T09:26:01;2.13;;;0.53;;
11854;SDS011;5987;53.140;8.904;2022-07-05T09:29:05;0.97;;;0.30;;
11854;SDS011;5987;53.140;8.904;2022-07-05T09:32:32;1.20;;;0.50;;
11854;SDS011;5987;53.140;8.904;2022-07-05T09:35:35;1.13;;;0.50;;
11854;SDS011;5987;53.140;8.904;2022-07-05T09:38:43;2.07;;;0.60;;
11854;SDS011;5987;53.140;8.904;2022-07-05T09:42:07;2.80;;;0.50;;
11854;SDS011;5987;53.140;8.904;2022-07-05T09:45:36;0.97;;;0.50;;
11854;SDS011;5987;53.140;8.904;2022-07-05T09:48:50;1.73;;;0.50;;
11854;SDS011;5987;53.140;8.904;2022-07-05T09:51:55;0.70;;;0.40;;
11854;SDS011;5987;53.140;8.904;2022-07-05T09:55:05;1.00;;;0.63;;
11854;SDS011;5987;53.140;8.904;2022-07-05T09:58:12;1.30;;;0.40;;
11854;SDS011;5987;53.140;8.904;2022-07-05T10:01:22;1.80;;;0.80;;
11854;SDS011;5987;53.140;8.904;2022-07-05T10:04:27;2.53;;;0.83;;
11854;SDS011;5987;53.140;8.904;2022-07-05T10:07:32;0.50;;;0.50;;
11854;SDS011;5987;53.140;8.904;2022-07-05T10:10:39;1.97;;;0.97;;
11854;SDS011;5987;53.140;8.904;2022-07-05T10:13:49;2.53;;;0.50;;
11854;SDS011;5987;53.140;8.904;2022-07-05T10:16:57;1.57;;;0.50;;
11854;SDS011;5987;53.140;8.904;2022-07-05T10:20:05;0.70;;;0.60;;
11854;SDS011;5987;53.140;8.904;2022-07-05T10:23:19;1.73;;;0.70;;
11854;SDS011;5987;53.140;8.904;2022-07-05T10:26:27;1.13;;;0.60;;
11854;SDS011;5987;53.140;8.904;2022-07-05T10:29:34;2.83;;;0.60;;
11854;SDS011;5987;53.140;8.904;2022-07-05T10:32:39;1.43;;;0.70;;
11854;SDS011;5987;53.140;8.904;2022-07-05T10:35:44;2.97;;;0.87;;
11854;SDS011;5987;53.140;8.904;2022-07-05T10:38:48;4.17;;;0.90;;
11854;SDS011;5987;53.140;8.904;2022-07-05T10:41:55;4.40;;;0.87;;
11854;SDS011;5987;53.140;8.904;2022-07-05T10:45:00;4.40;;;0.73;;
11854;SDS011;5987;53.140;8.904;2022-07-05T10:48:15;0.80;;;0.60;;
11854;SDS011;5987;53.140;8.904;2022-07-05T10:51:22;2.60;;;0.80;;
11854;SDS011;5987;53.140;8.904;2022-07-05T10:54:27;2.17;;;0.63;;
11854;SDS011;5987;53.140;8.904;2022-07-05T10:57:34;2.77;;;0.80;;
11854;SDS011;5987;53.140;8.904;2022-07-05T11:00:38;2.20;;;0.73;;
11854;SDS011;5987;53.140;8.904;2022-07-05T11:03:42;3.50;;;0.80;;
11854;SDS011;5987;53.140;8.904;2022-07-05T11:06:48;2.37;;;0.70;;
11854;SDS011;5987;53.140;8.904;2022-07-05T11:09:59;1.97;;;0.77;;
11854;SDS011;5987;53.140;8.904;2022-07-05T11:13:17;3.03;;;0.87;;
11854;SDS011;5987;53.140;8.904;2022-07-05T11:16:39;2.93;;;0.97;;
11854;SDS011;5987;53.140;8.904;2022-07-05T11:19:59;1.23;;;0.60;;
11854;SDS011;5987;53.140;8.904;2022-07-05T11:23:12;1.53;;;0.90;;
11854;SDS011;5987;53.140;8.904;2022-07-05T11:26:16;3.27;;;1.27;;
11854;SDS011;5987;53.140;8.904;2022-07-05T11:32:48;0.83;;;0.50;;
11854;SDS011;5987;53.140;8.904;2022-07-05T11:35:52;0.70;;;0.60;;
11854;SDS011;5987;53.140;8.904;2022-07-05T11:39:13;1.93;;;0.50;;
11854;SDS011;5987;53.140;8.904;2022-07-05T11:42:21;1.83;;;0.70;;
11854;SDS011;5987;53.140;8.904;2022-07-05T11:45:38;2.17;;;0.60;;
11854;SDS011;5987;53.140;8.904;2022-07-05T11:48:42;3.67;;;0.80;;
11854;SDS011;5987;53.140;8.904;2022-07-05T11:51:53;2.87;;;0.73;;
11854;SDS011;5987;53.140;8.904;2022-07-05T11:54:58;1.97;;;0.60;;
11854;SDS011;5987;53.140;8.904;2022-07-05T11:58:08;4.80;;;0.73;;
11854;SDS011;5987;53.140;8.904;2022-07-05T12:01:14;3.23;;;0.80;;
11854;SDS011;5987;53.140;8.904;2022-07-05T12:04:21;4.57;;;1.07;;
11854;SDS011;5987;53.140;8.904;2022-07-05T12:07:26;1.07;;;0.70;;
11854;SDS011;5987;53.140;8.904;2022-07-05T12:10:31;0.80;;;0.60;;
11854;SDS011;5987;53.140;8.904;2022-07-05T12:14:19;2.73;;;0.70;;
11854;SDS011;5987;53.140;8.904;2022-07-05T12:17:26;2.87;;;1.10;;
11854;SDS011;5987;53.140;8.904;2022-07-05T12:20:30;2.50;;;1.00;;
11854;SDS011;5987;53.140;8.904;2022-07-05T12:23:36;2.77;;;0.80;;
11854;SDS011;5987;53.140;8.904;2022-07-05T12:26:40;2.70;;;0.70;;
11854;SDS011;5987;53.140;8.904;2022-07-05T12:29:44;3.30;;;0.90;;
11854;SDS011;5987;53.140;8.904;2022-07-05T12:33:00;1.57;;;0.80;;
11854;SDS011;5987;53.140;8.904;2022-07-05T12:36:05;1.13;;;0.60;;
11854;SDS011;5987;53.140;8.904;2022-07-05T12:39:16;3.00;;;0.80;;
11854;SDS011;5987;53.140;8.904;2022-07-05T12:42:30;1.30;;;0.80;;
11854;SDS011;5987;53.140;8.904;2022-07-05T12:45:58;1.90;;;0.70;;
11854;SDS011;5987;53.140;8.904;2022-07-05T12:49:05;1.83;;;0.80;;
11854;SDS011;5987;53.140;8.904;2022-07-05T12:52:09;1.83;;;0.80;;
11854;SDS011;5987;53.140;8.904;2022-07-05T12:55:13;1.37;;;0.67;;
11854;SDS011;5987;53.140;8.904;2022-07-05T12:58:44;1.63;;;0.83;;
11854;SDS011;5987;53.140;8.904;2022-07-05T13:01:50;2.20;;;0.77;;
11854;SDS011;5987;53.140;8.904;2022-07-05T13:04:55;3.20;;;0.90;;
11854;SDS011;5987;53.140;8.904;2022-07-05T13:07:58;2.77;;;0.80;;
11854;SDS011;5987;53.140;8.904;2022-07-05T13:11:02;2.30;;;0.80;;
11854;SDS011;5987;53.140;8.904;2022-07-05T13:14:06;2.13;;;0.67;;
11854;SDS011;5987;53.140;8.904;2022-07-05T13:17:10;2.30;;;0.60;;
11854;SDS011;5987;53.140;8.904;2022-07-05T13:20:18;1.97;;;0.73;;
11854;SDS011;5987;53.140;8.904;2022-07-05T13:23:24;2.90;;;0.70;;
11854;SDS011;5987;53.140;8.904;2022-07-05T13:26:28;3.80;;;1.07;;
11854;SDS011;5987;53.140;8.904;2022-07-05T13:29:33;2.37;;;0.67;;
11854;SDS011;5987;53.140;8.904;2022-07-05T13:32:37;2.33;;;0.60;;
11854;SDS011;5987;53.140;8.904;2022-07-05T13:35:43;1.80;;;0.60;;
11854;SDS011;5987;53.140;8.904;2022-07-05T13:38:47;2.33;;;0.80;;
11854;SDS011;5987;53.140;8.904;2022-07-05T13:41:52;2.77;;;0.80;;
11854;SDS011;5987;53.140;8.904;2022-07-05T13:44:57;3.00;;;0.80;;
11854;SDS011;5987;53.140;8.904;2022-07-05T13:48:01;1.47;;;0.50;;
11854;SDS011;5987;53.140;8.904;2022-07-05T13:51:06;3.47;;;0.77;;
11854;SDS011;5987;53.140;8.904;2022-07-05T13:54:10;1.10;;;0.60;;
11854;SDS011;5987;53.140;8.904;2022-07-05T13:57:14;2.23;;;0.80;;
11854;SDS011;5987;53.140;8.904;2022-07-05T14:00:18;1.93;;;0.70;;
11854;SDS011;5987;53.140;8.904;2022-07-05T14:03:22;2.97;;;0.87;;
11854;SDS011;5987;53.140;8.904;2022-07-05T14:06:27;4.83;;;1.03;;
11854;SDS011;5987;53.140;8.904;2022-07-05T14:09:32;2.33;;;1.00;;
11854;SDS011;5987;53.140;8.904;2022-07-05T14:12:35;1.90;;;0.80;;
11854;SDS011;5987;53.140;8.904;2022-07-05T14:15:39;3.43;;;0.93;;
11854;SDS011;5987;53.140;8.904;2022-07-05T14:18:43;2.57;;;0.83;;
11854;SDS011;5987;53.140;8.904;2022-07-05T14:21:48;3.00;;;0.90;;
11854;SDS011;5987;53.140;8.904;2022-07-05T14:24:52;1.93;;;0.80;;
11854;SDS011;5987;53.140;8.904;2022-07-05T14:27:55;4.63;;;0.80;;
11854;SDS011;5987;53.140;8.904;2022-07-05T14:30:59;1.47;;;0.73;;
11854;SDS011;5987;53.140;8.904;2022-07-05T14:34:03;1.57;;;0.77;;
11854;SDS011;5987;53.140;8.904;2022-07-05T14:37:08;2.70;;;0.60;;
11854;SDS011;5987;53.140;8.904;2022-07-05T14:40:12;3.17;;;1.10;;
11854;SDS011;5987;53.140;8.904;2022-07-05T14:43:16;1.43;;;0.67;;
11854;SDS011;5987;53.140;8.904;2022-07-05T14:46:20;1.80;;;0.50;;
11854;SDS011;5987;53.140;8.904;2022-07-05T14:49:24;3.37;;;0.90;;
11854;SDS011;5987;53.140;8.904;2022-07-05T14:52:29;4.20;;;0.80;;
11854;SDS011;5987;53.140;8.904;2022-07-05T14:55:33;1.13;;;0.60;;
11854;SDS011;5987;53.140;8.904;2022-07-05T14:58:39;1.93;;;0.60;;
11854;SDS011;5987;53.140;8.904;2022-07-05T15:01:42;3.17;;;0.90;;
11854;SDS011;5987;53.140;8.904;2022-07-05T15:04:46;2.33;;;1.10;;
11854;SDS011;5987;53.140;8.904;2022-07-05T15:07:52;6.00;;;0.90;;
11854;SDS011;5987;53.140;8.904;2022-07-05T15:10:55;4.17;;;0.90;;
11854;SDS011;5987;53.140;8.904;2022-07-05T15:13:59;3.97;;;0.93;;
11854;SDS011;5987;53.140;8.904;2022-07-05T15:17:05;5.03;;;0.90;;
11854;SDS011;5987;53.140;8.904;2022-07-05T15:20:09;4.25;;;1.10;;
11854;SDS011;5987;53.140;8.904;2022-07-05T15:23:15;3.17;;;1.00;;
11854;SDS011;5987;53.140;8.904;2022-07-05T15:26:20;4.90;;;1.13;;
11854;SDS011;5987;53.140;8.904;2022-07-05T15:29:24;2.03;;;0.73;;
11854;SDS011;5987;53.140;8.904;2022-07-05T15:32:30;4.23;;;0.97;;
11854;SDS011;5987;53.140;8.904;2022-07-05T15:35:34;2.97;;;0.80;;
11854;SDS011;5987;53.140;8.904;2022-07-05T15:38:39;2.70;;;0.90;;
11854;SDS011;5987;53.140;8.904;2022-07-05T15:41:43;2.70;;;0.90;;
11854;SDS011;5987;53.140;8.904;2022-07-05T15:44:46;1.83;;;0.90;;
11854;SDS011;5987;53.140;8.904;2022-07-05T15:48:02;4.53;;;0.77;;
11854;SDS011;5987;53.140;8.904;2022-07-05T15:51:06;3.43;;;1.10;;
11854;SDS011;5987;53.140;8.904;2022-07-05T15:54:13;3.13;;;0.90;;
11854;SDS011;5987;53.140;8.904;2022-07-05T15:57:17;1.97;;;0.70;;
11854;SDS011;5987;53.140;8.904;2022-07-05T16:00:21;1.60;;;0.70;;
11854;SDS011;5987;53.140;8.904;2022-07-05T16:03:25;3.10;;;0.63;;
11854;SDS011;5987;53.140;8.904;2022-07-05T16:06:29;2.80;;;0.67;;
11854;SDS011;5987;53.140;8.904;2022-07-05T16:09:34;2.83;;;0.57;;
11854;SDS011;5987;53.140;8.904;2022-07-05T16:12:38;5.57;;;0.80;;
11854;SDS011;5987;53.140;8.904;2022-07-05T16:15:42;3.73;;;0.80;;
11854;SDS011;5987;53.140;8.904;2022-07-05T16:19:03;2.30;;;1.00;;
11854;SDS011;5987;53.140;8.904;2022-07-05T16:22:07;0.87;;;0.53;;
11854;SDS011;5987;53.140;8.904;2022-07-05T16:25:12;3.33;;;0.73;;
11854;SDS011;5987;53.140;8.904;2022-07-05T16:28:17;2.43;;;0.60;;
11854;SDS011;5987;53.140;8.904;2022-07-05T16:31:21;2.73;;;0.70;;
11854;SDS011;5987;53.140;8.904;2022-07-05T16:34:24;3.37;;;0.70;;
11854;SDS011;5987;53.140;8.904;2022-07-05T16:37:28;4.00;;;0.90;;
11854;SDS011;5987;53.140;8.904;2022-07-05T16:40:33;4.30;;;0.97;;
11854;SDS011;5987;53.140;8.904;2022-07-05T16:43:37;2.17;;;0.90;;
11854;SDS011;5987;53.140;8.904;2022-07-05T16:46:44;3.87;;;0.87;;
11854;SDS011;5987;53.140;8.904;2022-07-05T16:49:47;5.10;;;0.90;;
11854;SDS011;5987;53.140;8.904;2022-07-05T16:52:51;3.13;;;0.80;;
11854;SDS011;5987;53.140;8.904;2022-07-05T16:55:57;1.13;;;0.60;;
11854;SDS011;5987;53.140;8.904;2022-07-05T16:59:00;2.37;;;0.70;;
11854;SDS011;5987;53.140;8.904;2022-07-05T17:02:04;1.43;;;0.60;;
11854;SDS011;5987;53.140;8.904;2022-07-05T17:05:10;1.17;;;1.00;;
11854;SDS011;5987;53.140;8.904;2022-07-05T17:08:14;1.83;;;0.90;;
11854;SDS011;5987;53.140;8.904;2022-07-05T17:11:19;1.63;;;0.60;;
11854;SDS011;5987;53.140;8.904;2022-07-05T17:14:23;2.40;;;1.00;;
11854;SDS011;5987;53.140;8.904;2022-07-05T17:17:28;4.10;;;0.93;;
11854;SDS011;5987;53.140;8.904;2022-07-05T17:20:32;3.10;;;1.30;;
11854;SDS011;5987;53.140;8.904;2022-07-05T17:23:37;2.87;;;1.03;;
11854;SDS011;5987;53.140;8.904;2022-07-05T17:26:44;4.10;;;1.00;;
11854;SDS011;5987;53.140;8.904;2022-07-05T17:29:48;4.00;;;0.90;;
11854;SDS011;5987;53.140;8.904;2022-07-05T17:32:52;1.13;;;0.73;;
11854;SDS011;5987;53.140;8.904;2022-07-05T17:36:00;3.50;;;0.90;;
11854;SDS011;5987;53.140;8.904;2022-07-05T17:39:04;3.67;;;1.07;;
11854;SDS011;5987;53.140;8.904;2022-07-05T17:42:09;3.57;;;0.90;;
11854;SDS011;5987;53.140;8.904;2022-07-05T17:45:22;3.60;;;1.37;;
11854;SDS011;5987;53.140;8.904;2022-07-05T17:48:25;2.83;;;1.20;;
11854;SDS011;5987;53.140;8.904;2022-07-05T17:51:29;3.33;;;0.90;;
11854;SDS011;5987;53.140;8.904;2022-07-05T17:54:53;3.23;;;1.13;;
11854;SDS011;5987;53.140;8.904;2022-07-05T17:57:58;2.23;;;0.87;;
11854;SDS011;5987;53.140;8.904;2022-07-05T18:01:02;1.93;;;0.80;;
11854;SDS011;5987;53.140;8.904;2022-07-05T18:04:07;2.50;;;0.90;;
11854;SDS011;5987;53.140;8.904;2022-07-05T18:07:11;2.97;;;0.90;;
11854;SDS011;5987;53.140;8.904;2022-07-05T18:10:15;3.90;;;1.20;;
11854;SDS011;5987;53.140;8.904;2022-07-05T18:13:20;2.53;;;0.80;;
11854;SDS011;5987;53.140;8.904;2022-07-05T18:16:27;3.37;;;1.30;;
11854;SDS011;5987;53.140;8.904;2022-07-05T18:19:32;2.40;;;1.13;;
11854;SDS011;5987;53.140;8.904;2022-07-05T18:22:36;3.87;;;1.03;;
11854;SDS011;5987;53.140;8.904;2022-07-05T18:25:39;2.47;;;0.90;;
11854;SDS011;5987;53.140;8.904;2022-07-05T18:28:45;2.50;;;0.80;;
11854;SDS011;5987;53.140;8.904;2022-07-05T18:31:49;3.57;;;1.03;;
11854;SDS011;5987;53.140;8.904;2022-07-05T18:34:53;4.67;;;0.90;;
11854;SDS011;5987;53.140;8.904;2022-07-05T18:37:57;1.53;;;0.80;;
11854;SDS011;5987;53.140;8.904;2022-07-05T18:41:03;3.20;;;0.87;;
11854;SDS011;5987;53.140;8.904;2022-07-05T18:44:08;1.13;;;0.80;;
11854;SDS011;5987;53.140;8.904;2022-07-05T18:47:11;3.27;;;1.10;;
11854;SDS011;5987;53.140;8.904;2022-07-05T18:50:16;3.70;;;1.23;;
11854;SDS011;5987;53.140;8.904;2022-07-05T18:53:22;1.37;;;0.70;;
11854;SDS011;5987;53.140;8.904;2022-07-05T18:56:26;3.33;;;0.70;;
11854;SDS011;5987;53.140;8.904;2022-07-05T18:59:31;3.00;;;1.30;;